Tyson, Vermont
Current Conditions -  °F | °C
As of 7:54 PM on Saturday 25 Oct 2014 (Local Time) from KVSF Reporting Station
Overcast Overcast  
Wind Chill: 51°   Ceiling: 6500
Heat Index: 51°   Visibility: 8mi
Dew Point: 47°   Wind: 0mph
Humidity: 86%   Direction: NA
Pressure: 29.54"   Gusts: NA
Location:  43.3729°N, 72.7116°W
Report Text: KVSF 252354Z AUTO 00000KT 8SM BKN065 OVC080 11/08 A2954 RMK AO2 SLP008 T01060083 10167 20106 56019
Loading
Personal Weather Stations






























Interactive Weather Map
Tropical Storm Tracking
New forecast layout! Learn more

10-Day Weather Forecast

Advertisements
Track Severe Weather on mobile